Terminal Aerodrome Forecast
Issued by NWS El Paso, TX

Home | Current Version | Previous Version | Text Only | Print | Product List | Glossary On
Versions: 1 2 3 4 5 6 7 8 9 10 11 12
000
FTUS44 KEPZ 271700 RRA
TAFELP
TAF
KELP 271737Z 2718/2818 09010KT P6SM SCT250
     FM280500 07008KT P6SM BKN020 BKN250
     FM281200 08006KT P6SM SCT020 SCT150 BKN250
     FM281600 15009KT P6SM FEW150 BKN230=

USA.gov is the U.S. government's official web portal to all federal, state and local government web resources and services.